Oss, Netherlands
Current Conditions -  °F | °C
As of 6:55 PM on Friday 21 Nov 2014 (Local Time) from EHVK Reporting Station
Haze Haze  
Wind Chill: 32°   Ceiling: Unl
Heat Index: 37°   Visibility: 5mi
Dew Point: 36°   Wind: 7mph
Humidity: 93%   Direction: 70°ENE
Pressure: 30.12"   Gusts: NA
Location:  51.77°N, 5.52°E
Report Text: EHVK 211755Z AUTO 07006KT 8000 BR FEW180 03/02 Q1020 BLU
Loading
Personal Weather Stations






























Interactive Weather Map New forecast layout! Learn more

10-Day Weather Forecast

Advertisements
Track Severe Weather on mobile